This is the latest recevied weather packets stored in our database for station/object OK1FPA-13. If no packets are shown the sender has not sent any weather packets the latest 10 day(s).
| Time | Temp. | Humidity | Pressure | Rain* | Wind** | Luminosity | Snow |
|---|---|---|---|---|---|---|---|
| 1777786472 | 12.78° C | 52% | 1017.3 hPa | - | - | - | - |
| 1777785872 | 12.22° C | 51% | 1017.2 hPa | - | - | - | - |
| 1777785272 | 11.11° C | 57% | 1017.2 hPa | - | - | - | - |
| 1777784672 | 10° C | 66% | 1017.2 hPa | - | - | - | - |
| 1777784072 | 8.89° C | 68% | 1017.3 hPa | - | - | - | - |
| 1777783472 | 8.33° C | 70% | 1017.3 hPa | - | - | - | - |
| 1777782872 | 8.33° C | 70% | 1017.3 hPa | - | - | - | - |
| 1777782272 | 8.33° C | 65% | 1017.3 hPa | - | - | - | - |
| 1777781672 | 7.78° C | 64% | 1017.1 hPa | - | - | - | - |
| 1777781072 | 8.33° C | 63% | 1017 hPa | - | - | - | - |
| 1777780472 | 8.33° C | 62% | 1017 hPa | - | - | - | - |
| 1777779872 | 7.78° C | 63% | 1016.9 hPa | - | - | - | - |
| 1777779272 | 7.78° C | 64% | 1016.9 hPa | - | - | - | - |
| 1777778673 | 7.78° C | 64% | 1016.9 hPa | - | - | - | - |
| 1777778072 | 7.78° C | 63% | 1016.8 hPa | - | - | - | - |
| 1777777472 | 8.33° C | 60% | 1016.9 hPa | - | - | - | - |
| 1777776872 | 8.33° C | 59% | 1016.9 hPa | - | - | - | - |
| 1777776272 | 8.33° C | 60% | 1016.9 hPa | - | - | - | - |
| 1777775672 | 8.89° C | 59% | 1017 hPa | - | - | - | - |
| 1777775072 | 8.89° C | 59% | 1017 hPa | - | - | - | - |
| 1777774472 | 8.89° C | 57% | 1017 hPa | - | - | - | - |
| 1777773872 | 8.89° C | 58% | 1017 hPa | - | - | - | - |
| 1777773272 | 9.44° C | 57% | 1017.1 hPa | - | - | - | - |
| 1777772672 | 9.44° C | 58% | 1017.1 hPa | - | - | - | - |
| 1777772072 | 9.44° C | 58% | 1017.1 hPa | - | - | - | - |
* Rain since midnight (hover to see other rain measurements)
** Current wind speed in m/s (hover to see current wind gust speed)